Time;durP1;ratioP1;P1;durP2;ratioP2;P2;SDS_P1;SDS_P2;PMS_P1;PMS_P2;Temp;Humidity;BMP_temperature;BMP_pressure;BME280_temperature;BME280_humidity;BME280_pressure;Samples;Min_cycle;Max_cycle;Signal;HPM_P1;HPM_P2
2020/12/08 00:00:29;;;;;;;18.48;14.30;;;;;;;;;;5100107;28;20031;-64
2020/12/08 00:02:54;;;;;;;17.48;13.52;;;;;;;;;;5097963;28;20035;-64
2020/12/08 00:05:21;;;;;;;18.08;14.95;;;;;;;;;;5100237;28;20501;-64
2020/12/08 00:07:46;;;;;;;18.05;15.18;;;;;;;;;;5098093;28;20453;-64
2020/12/08 00:10:11;;;;;;;21.60;16.23;;;;;;;;;;5099228;28;20047;-64
2020/12/08 00:12:37;;;;;;;21.02;16.27;;;;;;;;;;5098010;28;20481;-65
2020/12/08 00:15:04;;;;;;;21.30;16.13;;;;;;;;;;5104230;28;20040;-64
2020/12/08 00:17:31;;;;;;;20.58;15.05;;;;;;;;;;5098367;28;20038;-64
2020/12/08 00:19:56;;;;;;;17.75;14.98;;;;;;;;;;5098273;28;20039;-64
2020/12/08 00:22:22;;;;;;;15.93;13.93;;;;;;;;;;5097738;28;20090;-64
2020/12/08 00:24:47;;;;;;;17.77;14.43;;;;;;;;;;5100239;28;20126;-64
2020/12/08 00:27:12;;;;;;;20.30;14.45;;;;;;;;;;5104007;28;20032;-64
2020/12/08 00:29:40;;;;;;;17.00;13.85;;;;;;;;;;5103184;28;20036;-64
2020/12/08 00:32:07;;;;;;;17.52;12.82;;;;;;;;;;5099773;28;20028;-64
2020/12/08 00:34:32;;;;;;;20.35;15.30;;;;;;;;;;5102663;28;20093;-65
2020/12/08 00:36:58;;;;;;;18.33;14.63;;;;;;;;;;5100788;28;20558;-65
2020/12/08 00:39:23;;;;;;;18.00;14.27;;;;;;;;;;5106983;28;20154;-65
2020/12/08 00:41:49;;;;;;;17.70;14.02;;;;;;;;;;5102294;28;20517;-64
2020/12/08 00:44:14;;;;;;;18.40;14.57;;;;;;;;;;5111359;28;20040;-64
2020/12/08 00:46:39;;;;;;;19.42;15.18;;;;;;;;;;5102123;28;20028;-65
2020/12/08 00:49:06;;;;;;;19.02;14.75;;;;;;;;;;5102518;28;20071;-65
2020/12/08 00:51:32;;;;;;;21.92;14.45;;;;;;;;;;5101281;28;20288;-65
2020/12/08 00:53:57;;;;;;;17.70;14.77;;;;;;;;;;5101834;28;20031;-65
2020/12/08 00:56:22;;;;;;;18.92;13.88;;;;;;;;;;5102054;28;20038;-65
2020/12/08 00:58:48;;;;;;;18.48;13.73;;;;;;;;;;5102929;28;20461;-65
2020/12/08 01:01:13;;;;;;;25.58;15.18;;;;;;;;;;5091980;28;20484;-65
2020/12/08 01:03:38;;;;;;;18.75;15.60;;;;;;;;;;5103373;28;20043;-65
2020/12/08 01:06:08;;;;;;;18.40;14.52;;;;;;;;;;5102397;27;20126;-65
2020/12/08 01:08:34;;;;;;;18.48;14.85;;;;;;;;;;5101335;28;20032;-65
2020/12/08 01:10:59;;;;;;;20.30;15.18;;;;;;;;;;5100791;28;20419;-65
2020/12/08 01:13:25;;;;;;;15.82;13.18;;;;;;;;;;5102016;28;20020;-64
2020/12/08 01:15:50;;;;;;;17.35;14.80;;;;;;;;;;5102909;28;20098;-65
2020/12/08 01:18:16;;;;;;;21.35;14.02;;;;;;;;;;5102196;28;20067;-65
2020/12/08 01:20:41;;;;;;;15.93;13.43;;;;;;;;;;5100477;28;20044;-65
2020/12/08 01:23:07;;;;;;;17.20;13.52;;;;;;;;;;5101970;28;20122;-65
2020/12/08 01:25:33;;;;;;;15.90;13.40;;;;;;;;;;5102495;28;20478;-64
2020/12/08 01:27:59;;;;;;;18.27;13.85;;;;;;;;;;5100122;28;20042;-64
2020/12/08 01:30:25;;;;;;;18.27;13.57;;;;;;;;;;5103055;28;20028;-64
2020/12/08 01:32:50;;;;;;;16.42;12.88;;;;;;;;;;5097359;28;20114;-64
2020/12/08 01:35:17;;;;;;;16.55;12.88;;;;;;;;;;5103122;28;20032;-64
2020/12/08 01:37:44;;;;;;;17.17;11.63;;;;;;;;;;5097700;28;20481;-64
2020/12/08 01:40:09;;;;;;;15.60;13.23;;;;;;;;;;5103312;28;20035;-65
2020/12/08 01:42:34;;;;;;;17.55;13.52;;;;;;;;;;5099238;28;20032;-65
2020/12/08 01:45:00;;;;;;;17.13;13.07;;;;;;;;;;5101602;28;20036;-64
2020/12/08 01:47:26;;;;;;;17.92;13.35;;;;;;;;;;5101156;28;20046;-64
2020/12/08 01:49:51;;;;;;;18.75;13.98;;;;;;;;;;5100566;27;20137;-64
2020/12/08 01:52:17;;;;;;;15.27;12.43;;;;;;;;;;5101547;28;20473;-65
2020/12/08 01:54:45;;;;;;;20.02;14.10;;;;;;;;;;5099664;28;20425;-65
2020/12/08 01:57:10;;;;;;;19.45;13.68;;;;;;;;;;5101615;28;20092;-65
2020/12/08 01:59:36;;;;;;;18.13;13.60;;;;;;;;;;5101346;28;20442;-65
2020/12/08 02:02:01;;;;;;;17.90;14.38;;;;;;;;;;5099084;28;20051;-65
2020/12/08 02:04:26;;;;;;;16.40;13.65;;;;;;;;;;5102150;28;20043;-65
2020/12/08 02:06:52;;;;;;;16.10;12.93;;;;;;;;;;5097143;28;20377;-64
2020/12/08 02:09:17;;;;;;;20.67;13.65;;;;;;;;;;5091754;28;20441;-64
2020/12/08 02:11:43;;;;;;;16.15;13.48;;;;;;;;;;5097750;28;20042;-64
2020/12/08 02:14:08;;;;;;;17.10;12.98;;;;;;;;;;5102769;28;20028;-65
2020/12/08 02:16:33;;;;;;;15.77;12.50;;;;;;;;;;5099835;28;20179;-64
2020/12/08 02:18:59;;;;;;;19.48;13.63;;;;;;;;;;5099728;28;20096;-64
2020/12/08 02:21:30;;;;;;;18.77;14.02;;;;;;;;;;5099049;28;20027;-65
2020/12/08 02:23:55;;;;;;;16.90;12.77;;;;;;;;;;5101072;28;20081;-65
2020/12/08 02:26:20;;;;;;;15.65;13.38;;;;;;;;;;5095815;28;20036;-65
2020/12/08 02:28:46;;;;;;;15.77;13.38;;;;;;;;;;5101329;28;20716;-65
2020/12/08 02:31:11;;;;;;;20.05;13.45;;;;;;;;;;5103243;28;20039;-65
2020/12/08 02:33:36;;;;;;;19.08;14.63;;;;;;;;;;5099475;28;20361;-65
2020/12/08 02:36:02;;;;;;;15.23;12.27;;;;;;;;;;5100071;28;20181;-65
2020/12/08 02:38:27;;;;;;;19.13;14.00;;;;;;;;;;5098919;28;20035;-65
2020/12/08 02:40:54;;;;;;;15.95;13.55;;;;;;;;;;5101138;28;20119;-64
2020/12/08 02:43:20;;;;;;;18.08;13.73;;;;;;;;;;5098020;28;20043;-65
2020/12/08 02:45:46;;;;;;;17.50;12.85;;;;;;;;;;5105148;28;20583;-64
2020/12/08 02:48:12;;;;;;;16.05;12.70;;;;;;;;;;5099031;28;20056;-65
2020/12/08 02:50:37;;;;;;;15.38;12.90;;;;;;;;;;5101130;28;20028;-65
2020/12/08 02:53:03;;;;;;;18.67;14.32;;;;;;;;;;5098932;28;20456;-64
2020/12/08 02:55:29;;;;;;;17.65;13.68;;;;;;;;;;5100113;28;20063;-65
2020/12/08 02:57:54;;;;;;;16.67;14.02;;;;;;;;;;5099053;28;20085;-65
2020/12/08 03:00:19;;;;;;;17.88;13.68;;;;;;;;;;5096381;28;20024;-65
2020/12/08 03:02:45;;;;;;;16.08;13.63;;;;;;;;;;5098477;28;20050;-65
2020/12/08 03:05:10;;;;;;;17.92;13.35;;;;;;;;;;5099513;28;20098;-64
2020/12/08 03:07:37;;;;;;;18.15;14.70;;;;;;;;;;5100010;28;20035;-65
2020/12/08 03:10:03;;;;;;;16.75;13.35;;;;;;;;;;5100202;28;20074;-65
2020/12/08 03:12:28;;;;;;;16.83;14.48;;;;;;;;;;5097271;28;20055;-65
2020/12/08 03:14:53;;;;;;;16.35;13.45;;;;;;;;;;5100120;28;20096;-65
2020/12/08 03:17:19;;;;;;;16.73;13.93;;;;;;;;;;5098785;28;20028;-65
2020/12/08 03:19:44;;;;;;;16.70;14.32;;;;;;;;;;5114531;27;20038;-65
2020/12/08 03:22:09;;;;;;;18.33;14.27;;;;;;;;;;5100444;28;20040;-65
2020/12/08 03:24:35;;;;;;;16.80;13.80;;;;;;;;;;5097546;28;20101;-65
2020/12/08 03:27:00;;;;;;;18.58;15.27;;;;;;;;;;5103883;28;20035;-65
2020/12/08 03:29:25;;;;;;;17.48;14.57;;;;;;;;;;5097618;28;20040;-64
2020/12/08 03:31:51;;;;;;;15.80;13.48;;;;;;;;;;5099042;28;20024;-64
2020/12/08 03:34:16;;;;;;;21.48;15.40;;;;;;;;;;5101305;28;20023;-64
2020/12/08 03:36:41;;;;;;;18.00;14.40;;;;;;;;;;5097302;28;20138;-64
2020/12/08 03:39:07;;;;;;;18.30;15.00;;;;;;;;;;5098708;28;20169;-64
2020/12/08 03:41:32;;;;;;;17.35;15.38;;;;;;;;;;5095512;28;20102;-64
2020/12/08 03:43:57;;;;;;;19.02;14.88;;;;;;;;;;5099260;28;20032;-64
2020/12/08 03:46:25;;;;;;;18.85;15.35;;;;;;;;;;5100322;28;20028;-66
2020/12/08 03:48:52;;;;;;;17.25;14.57;;;;;;;;;;5112257;28;20044;-65
2020/12/08 03:51:19;;;;;;;18.45;15.25;;;;;;;;;;5099751;28;20364;-66
2020/12/08 03:53:45;;;;;;;20.33;16.23;;;;;;;;;;5098889;28;20106;-65
2020/12/08 03:56:11;;;;;;;19.15;15.60;;;;;;;;;;5101074;28;20119;-64
2020/12/08 03:58:37;;;;;;;18.98;15.00;;;;;;;;;;5100050;28;20436;-65
2020/12/08 04:01:03;;;;;;;18.08;15.88;;;;;;;;;;5104326;28;20124;-64
2020/12/08 04:03:29;;;;;;;18.50;16.15;;;;;;;;;;5108715;28;20024;-66
2020/12/08 04:05:59;;;;;;;21.05;16.20;;;;;;;;;;5103951;28;20086;-64
2020/12/08 04:08:25;;;;;;;19.50;15.90;;;;;;;;;;5104221;28;20027;-64
2020/12/08 04:10:50;;;;;;;22.42;16.60;;;;;;;;;;5102930;28;20117;-64
2020/12/08 04:13:15;;;;;;;18.35;15.73;;;;;;;;;;5104291;28;20024;-64
2020/12/08 04:15:40;;;;;;;19.23;15.43;;;;;;;;;;5104671;28;20028;-65
2020/12/08 04:18:08;;;;;;;19.17;16.33;;;;;;;;;;5103008;28;20093;-64
2020/12/08 04:20:33;;;;;;;18.58;15.85;;;;;;;;;;5105178;28;20146;-64
2020/12/08 04:22:58;;;;;;;17.70;15.57;;;;;;;;;;5102793;28;20501;-65
2020/12/08 04:25:24;;;;;;;21.50;16.50;;;;;;;;;;5104321;28;20028;-64
2020/12/08 04:27:49;;;;;;;18.88;16.38;;;;;;;;;;5100711;28;20032;-65
2020/12/08 04:30:14;;;;;;;20.73;17.02;;;;;;;;;;5105319;28;20541;-64
2020/12/08 04:32:39;;;;;;;20.65;15.07;;;;;;;;;;5102615;28;20039;-66
2020/12/08 04:35:05;;;;;;;19.02;15.98;;;;;;;;;;5103137;28;20043;-64
2020/12/08 04:37:31;;;;;;;21.55;17.08;;;;;;;;;;5108575;28;20040;-64
2020/12/08 04:39:56;;;;;;;22.58;18.58;;;;;;;;;;5103435;28;20032;-65
2020/12/08 04:42:22;;;;;;;21.67;16.17;;;;;;;;;;5103000;28;20050;-64
2020/12/08 04:44:47;;;;;;;20.80;16.52;;;;;;;;;;5104862;28;20086;-64
2020/12/08 04:47:20;;;;;;;23.33;16.05;;;;;;;;;;5103514;28;20035;-65
2020/12/08 04:49:47;;;;;;;21.20;16.67;;;;;;;;;;5103504;28;20558;-64
2020/12/08 04:52:14;;;;;;;25.23;17.92;;;;;;;;;;5102641;28;20440;-65
2020/12/08 04:54:43;;;;;;;18.98;15.57;;;;;;;;;;5115385;27;20556;-65
2020/12/08 04:57:08;;;;;;;18.88;16.15;;;;;;;;;;5103028;28;20365;-64
2020/12/08 04:59:35;;;;;;;20.13;16.83;;;;;;;;;;5103706;28;20028;-66
2020/12/08 05:02:03;;;;;;;22.98;16.77;;;;;;;;;;5102658;28;20192;-65
2020/12/08 05:04:28;;;;;;;19.67;16.48;;;;;;;;;;5103845;28;20045;-65
2020/12/08 05:07:01;;;;;;;23.60;16.50;;;;;;;;;;5101479;28;20908;-65
2020/12/08 05:09:27;;;;;;;22.08;17.05;;;;;;;;;;5102454;28;20035;-65
2020/12/08 05:11:56;;;;;;;19.65;15.77;;;;;;;;;;5101779;28;20035;-65
2020/12/08 05:14:21;;;;;;;21.25;17.38;;;;;;;;;;5102886;28;20035;-65
2020/12/08 05:16:46;;;;;;;20.95;16.55;;;;;;;;;;5101425;28;20036;-65
2020/12/08 05:19:12;;;;;;;19.38;16.02;;;;;;;;;;5104067;28;20032;-65
2020/12/08 05:21:51;;;;;;;22.30;18.63;;;;;;;;;;5101830;28;20035;-66
2020/12/08 05:24:25;;;;;;;21.77;17.15;;;;;;;;;;5104851;28;20063;-65
2020/12/08 05:26:55;;;;;;;18.90;15.88;;;;;;;;;;5099431;28;20862;-65
2020/12/08 05:29:21;;;;;;;22.50;17.70;;;;;;;;;;5100046;28;20024;-65
2020/12/08 05:31:46;;;;;;;22.50;17.85;;;;;;;;;;5101363;28;20043;-66
2020/12/08 05:34:17;;;;;;;26.88;17.80;;;;;;;;;;5103315;28;20032;-66
2020/12/08 05:36:47;;;;;;;22.23;16.63;;;;;;;;;;5110160;27;20039;-65
2020/12/08 05:39:17;;;;;;;22.38;17.70;;;;;;;;;;5100552;28;20042;-65
2020/12/08 05:41:44;;;;;;;23.35;16.42;;;;;;;;;;5103534;28;20039;-65
2020/12/08 05:44:24;;;;;;;24.05;18.02;;;;;;;;;;5102275;28;20630;-66
2020/12/08 05:46:51;;;;;;;19.85;16.95;;;;;;;;;;5101918;28;20044;-65
2020/12/08 05:49:17;;;;;;;26.48;18.95;;;;;;;;;;5102816;28;20054;-65
2020/12/08 05:51:45;;;;;;;22.77;18.63;;;;;;;;;;5097516;28;20495;-62
2020/12/08 05:54:16;;;;;;;22.38;17.60;;;;;;;;;;5104169;28;20154;-62
2020/12/08 05:56:42;;;;;;;23.10;17.08;;;;;;;;;;5101296;28;20028;-63
2020/12/08 05:59:07;;;;;;;23.70;18.65;;;;;;;;;;5103333;28;20028;-62
2020/12/08 06:01:33;;;;;;;21.98;17.95;;;;;;;;;;5102494;28;20138;-62
2020/12/08 06:03:58;;;;;;;19.48;17.15;;;;;;;;;;5102387;28;20039;-63
2020/12/08 06:06:23;;;;;;;21.35;18.08;;;;;;;;;;5082982;28;20024;-63
2020/12/08 06:08:49;;;;;;;22.77;17.75;;;;;;;;;;5101725;28;20802;-64
2020/12/08 06:11:15;;;;;;;27.40;18.65;;;;;;;;;;5104325;28;20055;-64
2020/12/08 06:13:50;;;;;;;26.52;17.90;;;;;;;;;;5100600;28;20361;-64
2020/12/08 06:16:17;;;;;;;24.30;18.27;;;;;;;;;;5103898;28;20042;-65
2020/12/08 06:18:43;;;;;;;23.35;18.25;;;;;;;;;;5083798;28;20140;-64
2020/12/08 06:21:26;;;;;;;24.50;18.38;;;;;;;;;;5103290;28;20114;-64
2020/12/08 06:23:57;;;;;;;21.20;18.25;;;;;;;;;;5100083;28;20412;-64
2020/12/08 06:26:28;;;;;;;23.67;19.10;;;;;;;;;;5100460;28;20044;-65
2020/12/08 06:28:54;;;;;;;23.08;18.55;;;;;;;;;;5101279;28;20123;-65
2020/12/08 06:31:19;;;;;;;22.30;18.00;;;;;;;;;;5101811;28;20046;-65
2020/12/08 06:33:52;;;;;;;22.88;19.05;;;;;;;;;;5101504;28;20786;-64
2020/12/08 06:36:18;;;;;;;25.30;18.80;;;;;;;;;;5104808;28;20483;-64
2020/12/08 06:38:58;;;;;;;25.05;19.27;;;;;;;;;;5102170;28;20040;-64
2020/12/08 06:41:30;;;;;;;23.08;17.98;;;;;;;;;;5101453;28;20039;-64
2020/12/08 06:43:56;;;;;;;23.35;18.58;;;;;;;;;;5100088;28;20059;-64
2020/12/08 06:46:22;;;;;;;23.38;17.70;;;;;;;;;;5102493;28;20113;-64
2020/12/08 06:48:59;;;;;;;22.45;17.75;;;;;;;;;;5103156;28;20487;-64
2020/12/08 06:51:25;;;;;;;24.83;19.23;;;;;;;;;;5100679;28;20085;-64
2020/12/08 06:53:50;;;;;;;25.13;18.50;;;;;;;;;;5101716;28;20115;-64
2020/12/08 06:56:15;;;;;;;22.73;18.20;;;;;;;;;;5103303;28;20032;-65
2020/12/08 06:58:47;;;;;;;26.63;18.52;;;;;;;;;;5100705;28;20044;-64
2020/12/08 07:01:12;;;;;;;22.13;18.08;;;;;;;;;;5103453;28;20043;-64
2020/12/08 07:03:38;;;;;;;24.10;17.55;;;;;;;;;;5098202;28;20035;-64
2020/12/08 07:06:05;;;;;;;24.67;18.80;;;;;;;;;;5104494;28;20032;-64
2020/12/08 07:08:30;;;;;;;24.15;17.88;;;;;;;;;;5101672;28;20361;-65
2020/12/08 07:10:56;;;;;;;26.92;17.52;;;;;;;;;;5100092;28;20035;-64
2020/12/08 07:13:21;;;;;;;23.63;17.73;;;;;;;;;;5100350;28;20027;-64
2020/12/08 07:15:46;;;;;;;21.50;17.08;;;;;;;;;;5101154;28;20032;-65
2020/12/08 07:18:12;;;;;;;22.15;18.15;;;;;;;;;;5101912;28;20027;-65
2020/12/08 07:20:39;;;;;;;20.48;16.58;;;;;;;;;;5105075;28;20063;-65
2020/12/08 07:23:06;;;;;;;20.75;17.13;;;;;;;;;;5100643;28;20081;-64
2020/12/08 07:25:33;;;;;;;21.08;16.92;;;;;;;;;;5102077;28;20119;-64
2020/12/08 07:27:59;;;;;;;22.45;17.83;;;;;;;;;;5100077;28;20027;-65
2020/12/08 07:30:26;;;;;;;23.23;16.98;;;;;;;;;;5101793;28;20099;-64
2020/12/08 07:32:53;;;;;;;20.88;17.13;;;;;;;;;;5099075;28;20032;-65
2020/12/08 07:35:24;;;;;;;25.65;17.67;;;;;;;;;;5102659;28;20477;-64
2020/12/08 07:37:58;;;;;;;19.85;16.45;;;;;;;;;;5099861;28;20059;-64
2020/12/08 07:40:38;;;;;;;19.48;15.77;;;;;;;;;;5100994;28;20100;-64
2020/12/08 07:43:05;;;;;;;24.15;16.52;;;;;;;;;;5100292;28;20028;-64
2020/12/08 07:45:32;;;;;;;19.58;15.90;;;;;;;;;;5100186;28;20037;-63
2020/12/08 07:47:59;;;;;;;20.25;16.05;;;;;;;;;;5095897;28;20092;-64
2020/12/08 07:50:26;;;;;;;18.13;15.43;;;;;;;;;;5100631;28;20112;-64
2020/12/08 07:52:55;;;;;;;19.65;14.63;;;;;;;;;;5100135;28;20032;-64
2020/12/08 07:55:20;;;;;;;30.25;16.48;;;;;;;;;;5100902;28;20031;-65
2020/12/08 07:57:46;;;;;;;18.63;15.20;;;;;;;;;;5099624;28;20113;-65
2020/12/08 08:00:11;;;;;;;20.23;15.05;;;;;;;;;;5101262;28;20751;-65
2020/12/08 08:02:36;;;;;;;18.67;15.30;;;;;;;;;;5100472;28;20445;-65
2020/12/08 08:05:02;;;;;;;18.35;15.35;;;;;;;;;;5098691;28;20062;-65
2020/12/08 08:07:28;;;;;;;21.55;14.38;;;;;;;;;;5100010;28;20039;-65
2020/12/08 08:09:53;;;;;;;20.65;15.80;;;;;;;;;;5100673;28;20557;-66
2020/12/08 08:12:19;;;;;;;18.48;14.55;;;;;;;;;;5098872;28;20074;-65
2020/12/08 08:14:45;;;;;;;18.08;15.10;;;;;;;;;;5094688;28;20040;-59
2020/12/08 08:17:10;;;;;;;17.27;15.18;;;;;;;;;;5095701;28;20071;-59
2020/12/08 08:19:36;;;;;;;77.20;51.20;;;;;;;;;;5098071;28;20076;-59
2020/12/08 08:22:03;;;;;;;26.08;19.73;;;;;;;;;;5094356;28;20071;-59
2020/12/08 08:24:29;;;;;;;21.40;15.68;;;;;;;;;;5097045;28;20100;-59
2020/12/08 08:26:56;;;;;;;17.77;14.98;;;;;;;;;;5099640;28;20035;-59
2020/12/08 08:29:22;;;;;;;20.20;14.70;;;;;;;;;;5100179;28;20042;-59
2020/12/08 08:31:48;;;;;;;20.80;15.50;;;;;;;;;;5099565;28;20502;-59
2020/12/08 08:34:13;;;;;;;16.67;13.82;;;;;;;;;;5101365;28;20031;-65
2020/12/08 08:36:52;;;;;;;16.58;14.18;;;;;;;;;;5098578;28;20629;-65
2020/12/08 08:39:18;;;;;;;16.63;14.00;;;;;;;;;;5092908;28;20036;-65
2020/12/08 08:41:44;;;;;;;18.35;15.30;;;;;;;;;;5095754;28;20094;-66
2020/12/08 08:44:10;;;;;;;15.00;13.40;;;;;;;;;;5098456;28;20838;-65
2020/12/08 08:46:39;;;;;;;19.75;15.20;;;;;;;;;;5098404;28;20138;-66
2020/12/08 08:49:05;;;;;;;17.20;13.70;;;;;;;;;;5100032;28;20032;-65
2020/12/08 08:51:30;;;;;;;19.17;13.25;;;;;;;;;;5105035;28;20098;-65
2020/12/08 08:53:56;;;;;;;17.88;12.80;;;;;;;;;;5101838;28;20031;-66
2020/12/08 08:56:21;;;;;;;18.77;14.07;;;;;;;;;;5102353;28;20024;-65
2020/12/08 08:58:47;;;;;;;16.75;13.07;;;;;;;;;;5098677;28;20067;-59
2020/12/08 09:01:12;;;;;;;21.60;13.98;;;;;;;;;;5102503;28;20080;-59
2020/12/08 09:03:38;;;;;;;29.83;13.50;;;;;;;;;;5102859;28;20074;-59
2020/12/08 09:06:04;;;;;;;18.48;13.20;;;;;;;;;;5105051;28;20054;-58
2020/12/08 09:08:30;;;;;;;16.95;13.30;;;;;;;;;;5097973;28;20031;-59
2020/12/08 09:10:56;;;;;;;15.68;13.07;;;;;;;;;;5100095;28;20062;-58
2020/12/08 09:13:21;;;;;;;15.68;12.68;;;;;;;;;;5097942;28;20654;-58
2020/12/08 09:15:47;;;;;;;14.13;11.80;;;;;;;;;;5100545;28;20047;-59
2020/12/08 09:18:13;;;;;;;17.77;12.43;;;;;;;;;;5101092;28;20047;-59
2020/12/08 09:20:38;;;;;;;17.08;12.57;;;;;;;;;;5100909;28;20676;-59
2020/12/08 09:23:04;;;;;;;14.95;12.18;;;;;;;;;;5103667;28;20139;-59
2020/12/08 09:25:30;;;;;;;12.90;11.60;;;;;;;;;;5100948;28;20525;-58
2020/12/08 09:27:56;;;;;;;16.83;12.68;;;;;;;;;;5098523;28;20039;-60
2020/12/08 09:30:22;;;;;;;17.63;11.43;;;;;;;;;;5099940;28;20096;-60
2020/12/08 09:32:49;;;;;;;15.85;12.48;;;;;;;;;;5095661;28;20071;-60
2020/12/08 09:35:15;;;;;;;14.68;11.57;;;;;;;;;;5097735;28;20047;-60
2020/12/08 09:37:41;;;;;;;15.00;11.80;;;;;;;;;;5100002;28;20040;-60
2020/12/08 09:40:07;;;;;;;13.90;12.40;;;;;;;;;;5103357;28;20059;-60
2020/12/08 09:42:37;;;;;;;16.85;12.95;;;;;;;;;;5101885;28;20364;-60
2020/12/08 09:45:03;;;;;;;14.90;13.02;;;;;;;;;;5103117;28;20137;-61
2020/12/08 09:47:30;;;;;;;15.95;12.70;;;;;;;;;;5102167;28;20037;-58
2020/12/08 09:49:56;;;;;;;14.10;12.55;;;;;;;;;;5102984;28;20142;-58
2020/12/08 09:52:22;;;;;;;17.55;14.27;;;;;;;;;;5103211;28;20401;-58
2020/12/08 09:54:47;;;;;;;16.70;13.48;;;;;;;;;;5103202;28;20116;-60
2020/12/08 09:57:13;;;;;;;16.67;14.38;;;;;;;;;;5100030;28;20044;-59
2020/12/08 09:59:38;;;;;;;17.45;14.00;;;;;;;;;;5092007;28;20055;-59
2020/12/08 10:02:04;;;;;;;20.85;15.55;;;;;;;;;;5103745;28;20043;-59
2020/12/08 10:04:31;;;;;;;18.33;14.88;;;;;;;;;;5102476;28;20023;-59
2020/12/08 10:06:57;;;;;;;18.90;14.85;;;;;;;;;;5100508;28;20460;-67
2020/12/08 10:09:23;;;;;;;16.70;13.55;;;;;;;;;;5102919;28;20047;-67
2020/12/08 10:11:49;;;;;;;19.08;16.15;;;;;;;;;;5102663;28;20028;-67
2020/12/08 10:14:14;;;;;;;17.90;14.98;;;;;;;;;;5100964;28;20024;-67
2020/12/08 10:16:40;;;;;;;18.00;15.68;;;;;;;;;;5102574;28;20126;-67
2020/12/08 10:19:06;;;;;;;19.13;14.15;;;;;;;;;;5099785;28;20054;-67
2020/12/08 10:21:31;;;;;;;18.20;15.45;;;;;;;;;;5102279;28;20035;-67
2020/12/08 10:23:57;;;;;;;19.30;15.63;;;;;;;;;;5099925;28;20067;-67
2020/12/08 10:26:23;;;;;;;17.17;15.25;;;;;;;;;;5101671;28;20031;-67
2020/12/08 10:28:49;;;;;;;18.48;15.70;;;;;;;;;;5097169;28;20104;-60
2020/12/08 10:31:18;;;;;;;20.23;15.82;;;;;;;;;;5096989;28;20119;-60
2020/12/08 10:33:45;;;;;;;22.02;15.07;;;;;;;;;;5097380;28;20035;-60
2020/12/08 10:36:10;;;;;;;22.52;16.27;;;;;;;;;;5096846;28;20086;-60
2020/12/08 10:38:37;;;;;;;18.33;14.27;;;;;;;;;;5099588;28;20504;-60
2020/12/08 10:41:03;;;;;;;21.88;17.15;;;;;;;;;;5098799;28;20036;-59
2020/12/08 10:43:29;;;;;;;20.63;15.43;;;;;;;;;;5098808;28;20073;-60
2020/12/08 10:45:54;;;;;;;18.05;15.60;;;;;;;;;;5098003;28;20043;-60
2020/12/08 10:48:20;;;;;;;16.65;14.88;;;;;;;;;;5093099;28;20023;-60
2020/12/08 10:50:46;;;;;;;19.42;15.75;;;;;;;;;;5093513;28;20036;-60
2020/12/08 10:53:12;;;;;;;19.83;16.35;;;;;;;;;;5096166;28;20264;-61
2020/12/08 10:55:38;;;;;;;20.65;16.08;;;;;;;;;;5099137;28;20039;-60
2020/12/08 10:58:04;;;;;;;19.55;16.42;;;;;;;;;;5098272;28;20111;-59
2020/12/08 11:00:33;;;;;;;20.40;17.15;;;;;;;;;;5101320;28;20560;-60
2020/12/08 11:02:59;;;;;;;21.02;17.02;;;;;;;;;;5098598;28;20032;-68
2020/12/08 11:05:26;;;;;;;20.65;17.38;;;;;;;;;;5098795;28;20047;-68
2020/12/08 11:07:51;;;;;;;19.33;16.52;;;;;;;;;;5098181;28;20035;-67
2020/12/08 11:10:17;;;;;;;22.90;16.80;;;;;;;;;;5098864;28;20053;-68
2020/12/08 11:12:42;;;;;;;18.83;15.38;;;;;;;;;;5097274;28;20039;-68
2020/12/08 11:15:08;;;;;;;19.98;15.80;;;;;;;;;;5099380;28;20032;-68
2020/12/08 11:17:36;;;;;;;21.00;16.52;;;;;;;;;;5100175;28;20656;-68
2020/12/08 11:20:04;;;;;;;19.25;15.57;;;;;;;;;;5101323;28;20577;-69
2020/12/08 11:22:31;;;;;;;23.63;17.15;;;;;;;;;;5096254;28;20480;-65
2020/12/08 11:25:01;;;;;;;19.65;16.83;;;;;;;;;;5100610;28;20042;-66
2020/12/08 11:27:27;;;;;;;22.73;17.33;;;;;;;;;;5097492;28;20104;-66
2020/12/08 11:29:52;;;;;;;21.52;17.17;;;;;;;;;;5098421;28;20373;-59
2020/12/08 11:32:18;;;;;;;19.95;16.55;;;;;;;;;;5096540;28;20053;-60
2020/12/08 11:34:45;;;;;;;20.98;16.15;;;;;;;;;;5098395;28;20490;-59
2020/12/08 11:37:10;;;;;;;22.40;15.27;;;;;;;;;;5099333;28;20031;-60
2020/12/08 11:39:36;;;;;;;19.38;16.50;;;;;;;;;;5097897;28;20089;-59
2020/12/08 11:42:03;;;;;;;21.92;15.65;;;;;;;;;;5101740;28;20548;-65
2020/12/08 11:44:29;;;;;;;18.98;15.68;;;;;;;;;;5097810;28;20027;-66
2020/12/08 11:46:55;;;;;;;21.48;16.55;;;;;;;;;;5097870;28;20083;-66
2020/12/08 11:49:21;;;;;;;21.35;16.08;;;;;;;;;;5098564;28;20063;-67
2020/12/08 11:51:47;;;;;;;21.15;16.15;;;;;;;;;;5101023;28;20039;-67
2020/12/08 11:54:14;;;;;;;19.67;16.63;;;;;;;;;;5097406;28;20109;-66
2020/12/08 11:56:39;;;;;;;24.73;16.52;;;;;;;;;;5098436;28;20036;-67
2020/12/08 11:59:05;;;;;;;21.33;17.90;;;;;;;;;;5098195;28;20051;-67
2020/12/08 12:01:31;;;;;;;23.02;16.40;;;;;;;;;;5098813;28;20036;-66
2020/12/08 12:03:57;;;;;;;23.48;17.50;;;;;;;;;;5098875;28;20386;-66
2020/12/08 12:06:23;;;;;;;22.98;19.33;;;;;;;;;;5101895;28;20396;-66
2020/12/08 12:08:49;;;;;;;60.25;38.60;;;;;;;;;;5096231;28;20059;-67
2020/12/08 12:11:14;;;;;;;39.83;25.90;;;;;;;;;;5099435;28;20074;-67
2020/12/08 12:13:40;;;;;;;41.60;26.95;;;;;;;;;;5097149;28;20501;-66
2020/12/08 12:16:06;;;;;;;56.17;39.17;;;;;;;;;;5098515;28;20483;-67
2020/12/08 12:18:32;;;;;;;56.22;36.53;;;;;;;;;;5098670;28;20039;-65
2020/12/08 12:20:57;;;;;;;25.55;19.98;;;;;;;;;;5099968;28;20424;-65
2020/12/08 12:23:23;;;;;;;23.20;15.02;;;;;;;;;;5103080;28;20031;-65
2020/12/08 12:25:49;;;;;;;25.13;15.90;;;;;;;;;;5104394;28;20468;-65
2020/12/08 12:28:14;;;;;;;16.75;14.98;;;;;;;;;;5099644;27;20106;-66
2020/12/08 12:30:40;;;;;;;17.02;14.48;;;;;;;;;;5102627;28;20122;-66
2020/12/08 12:33:06;;;;;;;19.02;14.57;;;;;;;;;;5102489;28;20036;-66
2020/12/08 12:35:31;;;;;;;16.67;13.88;;;;;;;;;;5102118;28;20059;-66
2020/12/08 12:37:57;;;;;;;18.48;14.18;;;;;;;;;;5100689;28;20044;-66
2020/12/08 12:40:22;;;;;;;19.15;16.23;;;;;;;;;;5102367;28;20028;-67
2020/12/08 12:42:48;;;;;;;19.17;15.85;;;;;;;;;;5099779;28;20401;-61
2020/12/08 12:45:14;;;;;;;23.08;15.77;;;;;;;;;;5102433;28;20196;-60
2020/12/08 12:47:39;;;;;;;20.17;16.38;;;;;;;;;;5098223;28;20503;-61
2020/12/08 12:50:05;;;;;;;19.83;15.10;;;;;;;;;;5104401;28;20028;-60
2020/12/08 12:52:31;;;;;;;21.52;16.67;;;;;;;;;;5102191;28;20395;-61
2020/12/08 12:54:56;;;;;;;23.65;16.27;;;;;;;;;;5101528;28;20051;-60
2020/12/08 12:57:22;;;;;;;22.90;17.00;;;;;;;;;;5102011;28;20595;-66
2020/12/08 12:59:48;;;;;;;18.67;15.63;;;;;;;;;;5101070;28;20038;-67
2020/12/08 13:02:13;;;;;;;21.35;15.15;;;;;;;;;;5094411;28;20046;-67
2020/12/08 13:04:39;;;;;;;16.10;13.43;;;;;;;;;;5099095;27;20047;-66
2020/12/08 13:07:04;;;;;;;17.38;13.88;;;;;;;;;;5102231;27;20093;-65
2020/12/08 13:09:30;;;;;;;16.88;13.38;;;;;;;;;;5100798;28;20130;-66
2020/12/08 13:11:56;;;;;;;18.58;13.57;;;;;;;;;;5099559;27;20035;-65
2020/12/08 13:14:22;;;;;;;16.45;13.35;;;;;;;;;;5101474;28;20040;-67
2020/12/08 13:16:48;;;;;;;17.80;13.35;;;;;;;;;;5102686;28;20105;-65
2020/12/08 13:19:14;;;;;;;15.90;13.10;;;;;;;;;;5102132;28;20035;-65
2020/12/08 13:21:40;;;;;;;19.60;14.10;;;;;;;;;;5101347;28;20051;-59
2020/12/08 13:24:05;;;;;;;22.38;14.75;;;;;;;;;;5100017;28;20040;-59
2020/12/08 13:26:31;;;;;;;19.27;15.00;;;;;;;;;;5098819;28;20051;-60
2020/12/08 13:28:58;;;;;;;17.85;15.00;;;;;;;;;;5099087;28;20369;-60
2020/12/08 13:31:25;;;;;;;18.42;14.48;;;;;;;;;;5102576;27;20667;-60
2020/12/08 13:33:51;;;;;;;18.85;14.30;;;;;;;;;;5096271;28;20070;-61
2020/12/08 13:36:17;;;;;;;19.27;14.65;;;;;;;;;;5103316;28;20035;-60
2020/12/08 13:38:43;;;;;;;19.85;14.52;;;;;;;;;;5100034;28;20045;-60
2020/12/08 13:41:08;;;;;;;16.83;14.02;;;;;;;;;;5100443;28;20047;-61
2020/12/08 13:43:34;;;;;;;20.60;14.88;;;;;;;;;;5098190;28;20040;-61
2020/12/08 13:46:00;;;;;;;17.63;13.45;;;;;;;;;;5101074;28;20395;-61
2020/12/08 13:48:26;;;;;;;17.40;14.63;;;;;;;;;;5099003;28;20554;-60
2020/12/08 13:50:51;;;;;;;19.60;14.85;;;;;;;;;;5100120;28;20039;-61
2020/12/08 13:53:17;;;;;;;25.55;20.95;;;;;;;;;;5101663;28;20039;-64
2020/12/08 13:55:43;;;;;;;44.95;30.45;;;;;;;;;;5102748;28;20574;-65
2020/12/08 13:58:10;;;;;;;44.33;32.30;;;;;;;;;;5098667;28;20036;-66
2020/12/08 14:00:35;;;;;;;23.00;17.85;;;;;;;;;;5098369;28;20059;-64
2020/12/08 14:03:02;;;;;;;20.23;16.17;;;;;;;;;;5095989;28;20055;-66
2020/12/08 14:05:29;;;;;;;18.70;14.75;;;;;;;;;;5101347;28;20046;-66
2020/12/08 14:07:54;;;;;;;18.20;15.63;;;;;;;;;;5098718;28;20125;-65
2020/12/08 14:10:20;;;;;;;22.80;16.58;;;;;;;;;;5102643;28;20032;-65